createdAt,value
2018-01-17T00:01:14.641Z,1.40
2018-01-17T00:03:41.954Z,1.23
2018-01-17T00:06:09.227Z,1.33
2018-01-17T00:08:36.475Z,1.40
2018-01-17T00:11:03.756Z,1.40
2018-01-17T00:13:30.992Z,1.30
2018-01-17T00:15:58.264Z,1.10
2018-01-17T00:18:25.572Z,1.30
2018-01-17T00:20:52.823Z,1.20
2018-01-17T00:23:20.105Z,1.33
2018-01-17T00:25:47.352Z,1.00
2018-01-17T00:28:14.632Z,1.27
2018-01-17T00:30:41.871Z,1.10
2018-01-17T00:33:09.195Z,1.03
2018-01-17T00:35:36.436Z,1.57
2018-01-17T00:38:03.708Z,1.23
2018-01-17T00:40:30.960Z,0.80
2018-01-17T00:42:58.243Z,0.97
2018-01-17T00:45:25.496Z,1.20
2018-01-17T00:47:52.760Z,1.10
2018-01-17T00:50:20.013Z,1.30
2018-01-17T00:52:47.285Z,1.10
2018-01-17T00:55:14.568Z,1.20
2018-01-17T00:57:41.821Z,0.80
2018-01-17T01:00:09.100Z,1.23
2018-01-17T01:02:36.440Z,0.80
2018-01-17T01:05:03.705Z,1.70
2018-01-17T01:07:34.624Z,0.70
2018-01-17T01:10:01.892Z,1.10
2018-01-17T01:12:29.146Z,1.20
2018-01-17T01:14:56.464Z,1.03
2018-01-17T01:17:23.719Z,0.80
2018-01-17T01:19:50.999Z,1.00
2018-01-17T01:22:18.244Z,1.00
2018-01-17T01:24:45.513Z,1.30
2018-01-17T01:27:12.760Z,1.07
2018-01-17T01:29:40.111Z,0.90
2018-01-17T01:32:07.369Z,0.90
2018-01-17T01:34:34.631Z,1.00
2018-01-17T01:37:01.881Z,0.97
2018-01-17T01:39:29.154Z,0.80
2018-01-17T01:41:56.398Z,0.90
2018-01-17T01:44:23.662Z,0.80
2018-01-17T01:46:50.914Z,1.00
2018-01-17T01:49:18.164Z,0.70
2018-01-17T01:51:45.439Z,0.80
2018-01-17T01:54:12.708Z,0.73
2018-01-17T01:56:40.500Z,0.70
2018-01-17T01:59:07.750Z,0.60
2018-01-17T02:01:35.049Z,0.70
2018-01-17T02:04:02.264Z,0.70
2018-01-17T02:06:29.540Z,0.60
2018-01-17T02:08:56.795Z,0.73
2018-01-17T02:11:24.071Z,0.70
2018-01-17T02:13:51.320Z,0.60
2018-01-17T02:16:18.592Z,0.50
2018-01-17T02:18:45.892Z,0.53
2018-01-17T02:21:13.166Z,0.60
2018-01-17T02:23:40.426Z,0.67
2018-01-17T02:26:07.692Z,0.60
2018-01-17T02:28:34.946Z,0.90
2018-01-17T02:31:02.214Z,0.70
2018-01-17T02:33:29.471Z,0.70
2018-01-17T02:35:56.769Z,0.80
2018-01-17T02:38:24.032Z,0.70
2018-01-17T02:40:51.384Z,0.57
2018-01-17T02:43:18.664Z,0.60
2018-01-17T02:45:46.000Z,0.70
2018-01-17T02:48:13.263Z,0.90
2018-01-17T02:50:40.528Z,0.60
2018-01-17T02:53:07.805Z,0.70
2018-01-17T02:55:35.067Z,0.70
2018-01-17T02:58:02.335Z,0.70
2018-01-17T03:00:29.587Z,0.60
2018-01-17T03:02:56.854Z,0.67
2018-01-17T03:05:24.100Z,0.80
2018-01-17T03:07:51.376Z,0.50
2018-01-17T03:10:18.663Z,0.80
2018-01-17T03:12:45.935Z,0.83
2018-01-17T03:15:13.191Z,0.90
2018-01-17T03:17:40.479Z,1.00
2018-01-17T03:20:07.753Z,0.70
2018-01-17T03:22:35.008Z,0.80
2018-01-17T03:25:02.278Z,0.80
2018-01-17T03:27:29.525Z,0.67
2018-01-17T03:29:56.852Z,0.80
2018-01-17T03:32:24.103Z,0.70
2018-01-17T03:34:51.376Z,0.90
2018-01-17T03:37:18.625Z,0.70
2018-01-17T03:39:45.902Z,0.70
2018-01-17T03:42:13.147Z,0.90
2018-01-17T03:44:40.480Z,0.80
2018-01-17T03:47:07.727Z,0.60
2018-01-17T03:49:34.995Z,0.70
2018-01-17T03:52:02.248Z,0.97
2018-01-17T03:54:29.521Z,0.63
2018-01-17T03:56:56.985Z,0.90
2018-01-17T03:59:24.265Z,0.70
2018-01-17T04:01:51.516Z,0.90
2018-01-17T04:04:18.784Z,0.73
2018-01-17T04:06:46.040Z,0.70
2018-01-17T04:09:13.310Z,0.63
2018-01-17T04:11:40.556Z,0.80
2018-01-17T04:14:07.816Z,0.70
2018-01-17T04:16:35.079Z,0.80
2018-01-17T04:19:02.337Z,0.80
2018-01-17T04:21:29.642Z,0.60
2018-01-17T04:23:56.946Z,0.67
2018-01-17T04:26:24.212Z,0.70
2018-01-17T04:28:51.474Z,0.50
2018-01-17T04:31:18.808Z,0.90
2018-01-17T04:33:46.056Z,0.70
2018-01-17T04:36:13.336Z,0.80
2018-01-17T04:38:40.585Z,0.87
2018-01-17T04:41:07.851Z,0.60
2018-01-17T04:43:35.100Z,0.80
2018-01-17T04:46:02.428Z,0.80
2018-01-17T04:48:29.672Z,0.70
2018-01-17T04:50:56.936Z,0.67
2018-01-17T04:53:24.279Z,0.80
2018-01-17T04:55:51.640Z,0.77
2018-01-17T04:58:18.900Z,0.70
2018-01-17T05:00:46.143Z,1.00
2018-01-17T05:03:13.512Z,0.90
2018-01-17T05:05:40.764Z,0.70
2018-01-17T05:08:08.036Z,1.00
2018-01-17T05:10:35.285Z,1.33
2018-01-17T05:13:02.561Z,0.70
2018-01-17T05:15:29.809Z,1.10
2018-01-17T05:17:57.076Z,0.70
2018-01-17T05:20:24.328Z,1.00
2018-01-17T05:22:51.779Z,0.80
2018-01-17T05:25:19.088Z,0.90
2018-01-17T05:27:46.360Z,0.80
2018-01-17T05:30:13.609Z,1.03
2018-01-17T05:32:40.875Z,0.97
2018-01-17T05:35:08.124Z,0.80
2018-01-17T05:37:35.400Z,0.70
2018-01-17T05:40:02.648Z,0.80
2018-01-17T05:42:29.975Z,1.00
2018-01-17T05:44:57.240Z,1.00
2018-01-17T05:47:24.583Z,1.67
2018-01-17T05:49:51.855Z,1.20
2018-01-17T05:52:19.097Z,1.00
2018-01-17T05:54:46.374Z,1.00
2018-01-17T05:57:13.999Z,1.97
2018-01-17T05:59:41.706Z,1.30
2018-01-17T06:02:08.950Z,1.70
2018-01-17T06:04:36.220Z,1.30
2018-01-17T06:07:03.486Z,1.67
2018-01-17T06:09:30.749Z,1.43
2018-01-17T06:11:57.992Z,0.97
2018-01-17T06:14:25.287Z,1.13
2018-01-17T06:16:52.540Z,1.20
2018-01-17T06:19:19.802Z,0.90
2018-01-17T06:21:47.050Z,0.90
2018-01-17T06:24:14.335Z,1.13
2018-01-17T06:26:41.656Z,1.00
2018-01-17T06:29:08.962Z,1.17
2018-01-17T06:31:36.227Z,1.00
2018-01-17T06:34:03.473Z,1.10
2018-01-17T06:36:30.747Z,1.10
2018-01-17T06:38:57.992Z,1.00
2018-01-17T06:41:25.260Z,0.77
2018-01-17T06:43:52.514Z,1.03
2018-01-17T06:46:19.784Z,1.10
2018-01-17T06:48:47.060Z,0.80
2018-01-17T06:51:14.322Z,0.90
2018-01-17T06:53:41.668Z,1.10
2018-01-17T06:56:08.924Z,0.63
2018-01-17T06:58:36.204Z,0.90
2018-01-17T07:01:03.512Z,0.83
2018-01-17T07:03:30.768Z,1.00
2018-01-17T07:05:58.126Z,1.40
2018-01-17T07:08:25.380Z,0.80
2018-01-17T07:10:52.723Z,1.27
2018-01-17T07:13:19.976Z,1.30
2018-01-17T07:15:47.260Z,1.10
2018-01-17T07:18:14.521Z,1.10
2018-01-17T07:20:41.795Z,1.33
2018-01-17T07:23:09.043Z,1.33
2018-01-17T07:25:36.323Z,1.70
2018-01-17T07:28:03.596Z,1.27
2018-01-17T07:30:30.840Z,1.10
2018-01-17T07:32:58.116Z,1.30
2018-01-17T07:35:25.396Z,0.90
2018-01-17T07:37:52.652Z,0.80
2018-01-17T07:40:19.931Z,0.70
2018-01-17T07:42:47.212Z,0.60
2018-01-17T07:45:14.474Z,0.93
2018-01-17T07:47:41.743Z,1.20
2018-01-17T07:50:08.993Z,0.90
2018-01-17T07:52:36.270Z,0.87
2018-01-17T07:55:03.511Z,1.23
2018-01-17T07:57:30.784Z,0.97
2018-01-17T07:59:58.056Z,1.00
2018-01-17T08:02:25.327Z,0.90
2018-01-17T08:04:52.612Z,1.87
2018-01-17T08:07:19.865Z,1.27
2018-01-17T08:09:47.112Z,1.00
2018-01-17T08:12:14.412Z,1.30
2018-01-17T08:14:41.688Z,1.20
2018-01-17T08:17:08.934Z,1.33
2018-01-17T08:19:36.236Z,1.13
2018-01-17T08:22:03.488Z,1.17
2018-01-17T08:24:30.736Z,1.33
2018-01-17T08:26:58.159Z,0.73
2018-01-17T08:29:25.442Z,1.23
2018-01-17T08:31:53.693Z,1.47
2018-01-17T08:34:20.960Z,1.50
2018-01-17T08:36:48.865Z,1.73
2018-01-17T08:39:16.176Z,1.60
2018-01-17T08:41:43.432Z,1.50
2018-01-17T08:44:10.683Z,1.77
2018-01-17T08:46:37.985Z,2.00
2018-01-17T08:49:05.240Z,1.40
2018-01-17T08:51:32.492Z,1.60
2018-01-17T08:53:59.784Z,1.80
2018-01-17T08:56:27.036Z,1.57
2018-01-17T08:58:54.297Z,1.30
2018-01-17T09:01:21.590Z,1.70
2018-01-17T09:03:48.860Z,1.93
2018-01-17T09:06:16.131Z,1.73
2018-01-17T09:08:43.384Z,1.87
2018-01-17T09:11:10.668Z,2.10
2018-01-17T09:13:37.919Z,2.23
2018-01-17T09:16:05.180Z,2.20
2018-01-17T09:18:32.457Z,2.00
2018-01-17T09:20:59.718Z,1.90
2018-01-17T09:23:27.000Z,2.30
2018-01-17T09:25:54.250Z,1.60
2018-01-17T09:28:21.528Z,1.57
2018-01-17T09:30:48.792Z,2.00
2018-01-17T09:33:16.047Z,1.60
2018-01-17T09:35:43.311Z,1.70
2018-01-17T09:38:10.568Z,1.70
2018-01-17T09:40:37.840Z,2.10
2018-01-17T09:43:05.087Z,2.00
2018-01-17T09:45:32.372Z,2.53
2018-01-17T09:47:59.632Z,1.80
2018-01-17T09:50:26.935Z,2.10
2018-01-17T09:52:54.173Z,2.03
2018-01-17T09:55:21.429Z,2.03
2018-01-17T09:57:48.704Z,2.27
2018-01-17T10:00:16.002Z,1.90
2018-01-17T10:02:43.330Z,2.60
2018-01-17T10:05:10.581Z,1.97
2018-01-17T10:07:37.855Z,1.93
2018-01-17T10:10:05.136Z,1.90
2018-01-17T10:12:32.421Z,1.87
2018-01-17T10:14:59.692Z,2.37
2018-01-17T10:17:26.969Z,1.80
2018-01-17T10:19:54.219Z,2.00
2018-01-17T10:22:21.564Z,2.00
2018-01-17T10:24:48.922Z,1.73
2018-01-17T10:27:16.177Z,1.80
2018-01-17T10:29:43.447Z,1.77
2018-01-17T10:32:10.699Z,1.77
2018-01-17T10:34:38.032Z,1.67
2018-01-17T10:37:05.312Z,2.33
2018-01-17T10:39:32.604Z,2.13
2018-01-17T10:41:59.852Z,1.80
2018-01-17T10:44:27.145Z,2.10
2018-01-17T10:46:54.424Z,1.93
2018-01-17T10:49:21.696Z,2.40
2018-01-17T10:51:48.964Z,1.80
2018-01-17T10:54:16.220Z,2.27
2018-01-17T10:56:43.545Z,2.60
2018-01-17T10:59:10.839Z,2.00
2018-01-17T11:01:38.084Z,2.10
2018-01-17T11:04:05.341Z,3.13
2018-01-17T11:06:32.621Z,2.73
2018-01-17T11:08:59.883Z,1.77
2018-01-17T11:11:27.242Z,2.00
2018-01-17T11:13:54.494Z,1.50
2018-01-17T11:16:21.772Z,2.20
2018-01-17T11:18:49.036Z,2.10
2018-01-17T11:21:16.287Z,1.83
2018-01-17T11:23:43.560Z,1.90
2018-01-17T11:26:10.818Z,2.20
2018-01-17T11:28:38.090Z,1.60
2018-01-17T11:31:05.332Z,2.40
2018-01-17T11:33:32.628Z,2.00
2018-01-17T11:35:59.876Z,2.10
2018-01-17T11:38:27.132Z,1.63
2018-01-17T11:40:54.426Z,2.00
2018-01-17T11:43:21.654Z,2.30
2018-01-17T11:45:48.933Z,2.13
2018-01-17T11:48:16.200Z,1.50
2018-01-17T11:50:43.481Z,2.37
2018-01-17T11:53:10.724Z,1.67
2018-01-17T11:55:37.999Z,2.00
2018-01-17T11:58:05.277Z,1.70
2018-01-17T12:00:32.557Z,2.03
2018-01-17T12:02:59.832Z,1.83
2018-01-17T12:05:27.084Z,1.90
2018-01-17T12:07:54.368Z,1.97
2018-01-17T12:10:21.641Z,2.70
2018-01-17T12:12:48.916Z,1.70
2018-01-17T12:15:16.200Z,1.90
2018-01-17T12:17:43.457Z,2.43
2018-01-17T12:20:10.704Z,1.87
2018-01-17T12:22:37.985Z,2.20
2018-01-17T12:25:05.252Z,2.67
2018-01-17T12:27:32.544Z,2.00
2018-01-17T12:29:59.847Z,2.33
2018-01-17T12:32:27.094Z,1.47
2018-01-17T12:34:54.343Z,2.30
2018-01-17T12:37:21.617Z,2.33
2018-01-17T12:39:48.868Z,2.40
2018-01-17T12:42:16.144Z,2.80
2018-01-17T12:44:43.393Z,2.10
2018-01-17T12:47:10.757Z,2.40
2018-01-17T12:49:38.044Z,2.10
2018-01-17T12:52:05.324Z,1.70
2018-01-17T12:54:32.576Z,1.90
2018-01-17T12:56:59.825Z,1.97
2018-01-17T12:59:27.097Z,1.57
2018-01-17T13:01:54.348Z,1.83
2018-01-17T13:04:21.608Z,1.80
2018-01-17T13:06:48.892Z,2.00
2018-01-17T13:09:16.180Z,1.70
2018-01-17T13:11:43.451Z,1.60
2018-01-17T13:14:10.712Z,2.13
2018-01-17T13:16:37.996Z,1.60
2018-01-17T13:19:05.255Z,1.77
2018-01-17T13:21:32.538Z,2.00
2018-01-17T13:23:59.818Z,1.47
2018-01-17T13:26:27.068Z,1.70
2018-01-17T13:28:54.320Z,1.83
2018-01-17T13:31:21.625Z,1.93
2018-01-17T13:33:48.871Z,1.60
2018-01-17T13:36:16.127Z,1.40
2018-01-17T13:38:43.400Z,2.50
2018-01-17T13:41:10.676Z,1.53
2018-01-17T13:43:37.924Z,1.83
2018-01-17T13:46:05.200Z,1.80
2018-01-17T13:48:32.460Z,1.70
2018-01-17T13:50:59.733Z,1.33
2018-01-17T13:53:27.000Z,1.80
2018-01-17T13:55:54.289Z,1.70
2018-01-17T13:58:21.552Z,2.83
2018-01-17T14:00:48.811Z,1.63
2018-01-17T14:03:16.093Z,1.90
2018-01-17T14:05:43.345Z,1.73
2018-01-17T14:08:10.624Z,1.67
2018-01-17T14:10:37.872Z,1.40
2018-01-17T14:13:05.126Z,1.70
2018-01-17T14:15:32.395Z,2.03
2018-01-17T14:18:00.505Z,1.83
2018-01-17T14:20:27.792Z,1.80
2018-01-17T14:22:55.073Z,1.80
2018-01-17T14:25:22.325Z,1.83
2018-01-17T14:27:49.602Z,1.90
2018-01-17T14:30:17.011Z,1.87
2018-01-17T14:32:44.264Z,1.80
2018-01-17T14:35:11.516Z,1.80
2018-01-17T14:37:38.816Z,1.70
2018-01-17T14:40:06.067Z,1.90
2018-01-17T14:42:33.385Z,2.27
2018-01-17T14:45:00.668Z,1.70
2018-01-17T14:47:27.939Z,2.40
2018-01-17T14:49:55.197Z,2.10
2018-01-17T14:52:22.439Z,2.10
2018-01-17T14:54:49.716Z,1.97
2018-01-17T14:57:16.992Z,2.37
2018-01-17T14:59:44.288Z,2.80
2018-01-17T15:02:11.536Z,1.60
2018-01-17T15:04:38.797Z,2.10
2018-01-17T15:07:06.116Z,2.40
2018-01-17T15:09:33.370Z,2.10
2018-01-17T15:12:00.658Z,2.00
2018-01-17T15:14:27.900Z,1.10
2018-01-17T15:16:55.149Z,2.20
2018-01-17T15:19:22.424Z,1.77
2018-01-17T15:21:49.683Z,2.23
2018-01-17T15:24:16.971Z,2.10
2018-01-17T15:26:44.233Z,1.90
2018-01-17T15:29:11.480Z,2.30
2018-01-17T15:31:38.762Z,2.70
2018-01-17T15:34:06.037Z,1.87
2018-01-17T15:36:33.316Z,2.13
2018-01-17T15:39:01.242Z,2.27
2018-01-17T15:41:28.692Z,2.30
2018-01-17T15:43:55.959Z,1.90
2018-01-17T15:46:23.246Z,1.77
2018-01-17T15:48:50.550Z,2.23
2018-01-17T15:51:18.659Z,2.60
2018-01-17T15:53:45.936Z,2.10
2018-01-17T15:56:13.348Z,2.70
2018-01-17T15:58:40.663Z,2.80
2018-01-17T16:01:07.936Z,2.30
2018-01-17T16:03:35.201Z,2.20
2018-01-17T16:06:02.448Z,2.07
2018-01-17T16:08:29.728Z,2.87
2018-01-17T16:10:56.987Z,2.77
2018-01-17T16:13:24.260Z,2.87
2018-01-17T16:15:51.508Z,1.87
2018-01-17T16:18:18.776Z,2.47
2018-01-17T16:20:46.040Z,2.23
2018-01-17T16:23:13.303Z,2.20
2018-01-17T16:25:40.557Z,3.00
2018-01-17T16:28:07.823Z,2.47
2018-01-17T16:30:35.076Z,2.10
2018-01-17T16:33:02.450Z,2.47
2018-01-17T16:35:29.709Z,2.77
2018-01-17T16:37:56.972Z,2.37
2018-01-17T16:40:24.237Z,2.33
2018-01-17T16:42:51.488Z,3.17
2018-01-17T16:45:18.758Z,2.50
2018-01-17T16:47:46.080Z,2.67
2018-01-17T16:50:13.404Z,3.03
2018-01-17T16:52:40.652Z,3.00
2018-01-17T16:55:07.920Z,2.40
2018-01-17T16:57:35.190Z,2.70
2018-01-17T17:00:02.461Z,3.30
2018-01-17T17:02:29.716Z,3.63
2018-01-17T17:04:56.999Z,3.27
2018-01-17T17:07:24.300Z,2.40
2018-01-17T17:09:51.582Z,2.90
2018-01-17T17:12:18.842Z,3.03
2018-01-17T17:14:46.173Z,2.53
2018-01-17T17:17:13.435Z,2.70
2018-01-17T17:19:40.696Z,2.42
2018-01-17T17:22:07.964Z,2.40
2018-01-17T17:24:35.260Z,2.67
2018-01-17T17:27:02.492Z,2.63
2018-01-17T17:29:29.767Z,2.57
2018-01-17T17:31:57.035Z,2.27
2018-01-17T17:34:24.283Z,2.10
2018-01-17T17:36:51.562Z,2.90
2018-01-17T17:39:18.808Z,2.30
2018-01-17T17:41:46.076Z,2.60
2018-01-17T17:44:13.331Z,3.30
2018-01-17T17:46:41.488Z,2.57
2018-01-17T17:49:08.854Z,1.97
2018-01-17T17:51:36.112Z,2.47
2018-01-17T17:54:03.378Z,2.67
2018-01-17T17:56:30.645Z,2.17
2018-01-17T17:58:57.892Z,2.43
2018-01-17T18:01:25.176Z,2.43
2018-01-17T18:03:52.440Z,3.10
2018-01-17T18:06:19.716Z,4.37
2018-01-17T18:08:46.972Z,2.07
2018-01-17T18:11:14.255Z,2.13
2018-01-17T18:13:41.495Z,2.97
2018-01-17T18:16:08.760Z,2.73
2018-01-17T18:18:36.042Z,3.37
2018-01-17T18:21:03.305Z,2.70
2018-01-17T18:23:30.576Z,2.37
2018-01-17T18:26:01.665Z,2.50
2018-01-17T18:28:28.935Z,1.83
2018-01-17T18:30:56.184Z,2.83
2018-01-17T18:33:23.456Z,2.57
2018-01-17T18:35:50.704Z,2.67
2018-01-17T18:38:17.980Z,2.30
2018-01-17T18:40:45.244Z,2.70
2018-01-17T18:43:12.616Z,2.63
2018-01-17T18:45:39.868Z,2.43
2018-01-17T18:48:07.136Z,2.60
2018-01-17T18:50:34.393Z,2.30
2018-01-17T18:53:01.664Z,3.33
2018-01-17T18:55:28.933Z,2.30
2018-01-17T18:57:56.248Z,2.77
2018-01-17T19:00:23.517Z,2.43
2018-01-17T19:02:50.776Z,2.43
2018-01-17T19:05:18.060Z,2.47
2018-01-17T19:07:45.320Z,2.30
2018-01-17T19:10:12.600Z,3.90
2018-01-17T19:12:39.853Z,2.63
2018-01-17T19:15:07.129Z,2.20
2018-01-17T19:17:34.372Z,2.33
2018-01-17T19:20:01.680Z,2.73
2018-01-17T19:22:28.936Z,2.13
2018-01-17T19:24:56.209Z,3.23
2018-01-17T19:27:23.460Z,2.10
2018-01-17T19:29:50.737Z,2.27
2018-01-17T19:32:18.703Z,2.67
2018-01-17T19:34:45.975Z,2.77
2018-01-17T19:37:13.216Z,3.20
2018-01-17T19:39:40.472Z,2.27
2018-01-17T19:42:07.744Z,2.50
2018-01-17T19:44:35.008Z,2.50
2018-01-17T19:47:02.364Z,2.67
2018-01-17T19:49:29.619Z,2.20
2018-01-17T19:51:56.936Z,2.43
2018-01-17T19:54:24.200Z,2.13
2018-01-17T19:56:51.456Z,3.00
2018-01-17T19:59:18.766Z,2.60
2018-01-17T20:01:46.053Z,2.53
2018-01-17T20:04:13.404Z,2.80
2018-01-17T20:06:40.856Z,2.30
2018-01-17T20:09:08.108Z,2.30
2018-01-17T20:11:35.376Z,3.13
2018-01-17T20:14:03.828Z,2.30
2018-01-17T20:16:31.087Z,2.50
2018-01-17T20:18:58.335Z,2.70
2018-01-17T20:21:25.615Z,2.27
2018-01-17T20:23:52.897Z,2.60
2018-01-17T20:26:20.166Z,2.40
2018-01-17T20:28:47.476Z,3.37
2018-01-17T20:31:14.761Z,2.47
2018-01-17T20:33:42.048Z,2.47
2018-01-17T20:36:09.295Z,2.30
2018-01-17T20:38:36.572Z,2.60
2018-01-17T20:41:03.848Z,2.30
2018-01-17T20:43:31.103Z,3.67
2018-01-17T20:45:58.372Z,1.80
2018-01-17T20:48:25.700Z,2.57
2018-01-17T20:50:53.016Z,2.43
2018-01-17T20:53:20.292Z,3.23
2018-01-17T20:55:47.556Z,2.67
2018-01-17T20:58:14.842Z,2.90
2018-01-17T21:00:42.092Z,2.67
2018-01-17T21:03:09.348Z,3.20
2018-01-17T21:05:36.632Z,2.43
2018-01-17T21:08:03.888Z,2.90
2018-01-17T21:10:31.169Z,2.60
2018-01-17T21:12:58.441Z,2.77
2018-01-17T21:15:25.736Z,2.90
2018-01-17T21:17:52.990Z,2.40
2018-01-17T21:20:20.239Z,3.50
2018-01-17T21:22:47.530Z,4.00
2018-01-17T21:25:14.777Z,3.13
2018-01-17T21:27:42.069Z,3.17
2018-01-17T21:30:09.364Z,3.90
2018-01-17T21:32:36.679Z,4.07
2018-01-17T21:35:03.965Z,2.90
2018-01-17T21:37:31.217Z,3.47
2018-01-17T21:39:58.477Z,3.00
2018-01-17T21:42:31.476Z,3.43
2018-01-17T21:45:04.503Z,3.10
2018-01-17T21:47:31.760Z,3.25
2018-01-17T21:49:59.065Z,4.10
2018-01-17T21:52:26.315Z,3.40
2018-01-17T21:54:53.573Z,3.40
2018-01-17T21:57:20.855Z,3.80
2018-01-17T21:59:48.117Z,3.27
2018-01-17T22:02:15.397Z,3.50
2018-01-17T22:04:42.652Z,3.50
2018-01-17T22:07:09.930Z,4.47
2018-01-17T22:09:37.185Z,4.00
2018-01-17T22:12:04.459Z,3.73
2018-01-17T22:14:31.840Z,3.50
2018-01-17T22:16:59.100Z,3.90
2018-01-17T22:19:26.352Z,4.43
2018-01-17T22:21:53.658Z,3.63
2018-01-17T22:24:20.895Z,3.60
2018-01-17T22:26:48.161Z,4.30
2018-01-17T22:29:16.545Z,3.90
2018-01-17T22:31:43.824Z,3.53
2018-01-17T22:34:11.104Z,3.40
2018-01-17T22:36:38.384Z,3.60
2018-01-17T22:39:05.659Z,3.87
2018-01-17T22:41:32.922Z,3.90
2018-01-17T22:44:00.337Z,3.73
2018-01-17T22:46:27.609Z,3.90
2018-01-17T22:48:54.879Z,3.83
2018-01-17T22:51:22.141Z,3.60
2018-01-17T22:53:49.428Z,3.80
2018-01-17T22:56:16.690Z,2.70
2018-01-17T22:58:43.963Z,4.00
2018-01-17T23:01:11.224Z,3.90
2018-01-17T23:03:38.512Z,2.63
2018-01-17T23:06:05.767Z,4.47
2018-01-17T23:08:33.040Z,3.00
2018-01-17T23:11:00.329Z,3.60
2018-01-17T23:13:27.619Z,4.97
2018-01-17T23:15:54.872Z,3.90
2018-01-17T23:18:22.151Z,3.30
2018-01-17T23:20:49.424Z,3.87
2018-01-17T23:23:16.708Z,4.00
2018-01-17T23:25:43.960Z,3.10
2018-01-17T23:28:11.219Z,5.00
2018-01-17T23:30:38.504Z,3.53
2018-01-17T23:33:05.759Z,3.30
2018-01-17T23:35:33.044Z,3.00
2018-01-17T23:38:00.301Z,3.00
2018-01-17T23:40:27.581Z,3.20
2018-01-17T23:42:54.836Z,3.00
2018-01-17T23:45:22.133Z,3.47
2018-01-17T23:47:49.397Z,3.13
2018-01-17T23:50:16.657Z,4.40
2018-01-17T23:52:43.939Z,3.00
2018-01-17T23:55:11.196Z,2.77
2018-01-17T23:57:38.472Z,3.03
